sensor_id;sensor_type;location;lat;lon;timestamp;temperature;humidity
9410;DHT22;4744;52.576;13.568;2023-06-10T00:01:37;16.20;1.00
9410;DHT22;4744;52.576;13.568;2023-06-10T00:04:04;16.20;1.00
9410;DHT22;4744;52.576;13.568;2023-06-10T00:06:32;16.20;1.00
9410;DHT22;4744;52.576;13.568;2023-06-10T00:09:02;16.20;1.00
9410;DHT22;4744;52.576;13.568;2023-06-10T00:11:31;16.10;1.00
9410;DHT22;4744;52.576;13.568;2023-06-10T00:13:58;16.10;1.00
9410;DHT22;4744;52.576;13.568;2023-06-10T00:16:25;16.10;1.00
9410;DHT22;4744;52.576;13.568;2023-06-10T00:18:52;16.10;1.00
9410;DHT22;4744;52.576;13.568;2023-06-10T00:21:21;16.10;1.00
9410;DHT22;4744;52.576;13.568;2023-06-10T00:23:51;16.10;1.00
9410;DHT22;4744;52.576;13.568;2023-06-10T00:26:18;16.10;1.00
9410;DHT22;4744;52.576;13.568;2023-06-10T00:28:46;16.00;1.00
9410;DHT22;4744;52.576;13.568;2023-06-10T00:31:12;16.00;1.00
9410;DHT22;4744;52.576;13.568;2023-06-10T00:33:39;15.90;1.00
9410;DHT22;4744;52.576;13.568;2023-06-10T00:36:06;15.80;1.00
9410;DHT22;4744;52.576;13.568;2023-06-10T00:38:33;15.80;1.00
9410;DHT22;4744;52.576;13.568;2023-06-10T00:41:01;15.70;1.00
9410;DHT22;4744;52.576;13.568;2023-06-10T00:43:28;15.70;1.00
9410;DHT22;4744;52.576;13.568;2023-06-10T00:45:55;15.60;1.00
9410;DHT22;4744;52.576;13.568;2023-06-10T00:48:22;15.60;1.00
9410;DHT22;4744;52.576;13.568;2023-06-10T00:50:50;15.60;1.00
9410;DHT22;4744;52.576;13.568;2023-06-10T00:53:18;15.60;1.00
9410;DHT22;4744;52.576;13.568;2023-06-10T00:55:46;15.50;1.00
9410;DHT22;4744;52.576;13.568;2023-06-10T00:58:15;15.50;1.00
9410;DHT22;4744;52.576;13.568;2023-06-10T01:00:42;15.50;1.00
9410;DHT22;4744;52.576;13.568;2023-06-10T01:03:10;15.50;1.00
9410;DHT22;4744;52.576;13.568;2023-06-10T01:05:38;15.40;1.00
9410;DHT22;4744;52.576;13.568;2023-06-10T01:08:09;15.40;1.00
9410;DHT22;4744;52.576;13.568;2023-06-10T01:10:43;15.40;1.00
9410;DHT22;4744;52.576;13.568;2023-06-10T01:13:15;15.40;1.00
9410;DHT22;4744;52.576;13.568;2023-06-10T01:15:44;15.30;1.00
9410;DHT22;4744;52.576;13.568;2023-06-10T01:18:11;15.30;1.00
9410;DHT22;4744;52.576;13.568;2023-06-10T01:20:41;15.30;1.00
9410;DHT22;4744;52.576;13.568;2023-06-10T01:23:10;15.20;1.00
9410;DHT22;4744;52.576;13.568;2023-06-10T01:25:40;15.20;1.00
9410;DHT22;4744;52.576;13.568;2023-06-10T01:28:13;15.20;1.00
9410;DHT22;4744;52.576;13.568;2023-06-10T01:30:45;15.10;1.00
9410;DHT22;4744;52.576;13.568;2023-06-10T01:33:17;15.10;1.00
9410;DHT22;4744;52.576;13.568;2023-06-10T01:35:48;15.00;1.00
9410;DHT22;4744;52.576;13.568;2023-06-10T01:38:19;15.00;1.00
9410;DHT22;4744;52.576;13.568;2023-06-10T01:40:48;15.00;1.00
9410;DHT22;4744;52.576;13.568;2023-06-10T01:43:16;15.00;1.00
9410;DHT22;4744;52.576;13.568;2023-06-10T01:45:43;15.00;1.00
9410;DHT22;4744;52.576;13.568;2023-06-10T01:48:09;15.00;1.00
9410;DHT22;4744;52.576;13.568;2023-06-10T01:50:36;15.00;1.00
9410;DHT22;4744;52.576;13.568;2023-06-10T01:53:04;15.00;1.00
9410;DHT22;4744;52.576;13.568;2023-06-10T01:55:33;15.00;1.00
9410;DHT22;4744;52.576;13.568;2023-06-10T01:58:00;14.90;1.00
9410;DHT22;4744;52.576;13.568;2023-06-10T02:00:27;14.90;1.00
9410;DHT22;4744;52.576;13.568;2023-06-10T02:02:53;14.90;1.00
9410;DHT22;4744;52.576;13.568;2023-06-10T02:05:20;14.90;1.00
9410;DHT22;4744;52.576;13.568;2023-06-10T02:07:48;14.90;1.00
9410;DHT22;4744;52.576;13.568;2023-06-10T02:10:15;14.80;1.00
9410;DHT22;4744;52.576;13.568;2023-06-10T02:12:43;14.80;1.00
9410;DHT22;4744;52.576;13.568;2023-06-10T02:15:10;14.80;1.00
9410;DHT22;4744;52.576;13.568;2023-06-10T02:17:37;14.70;1.00
9410;DHT22;4744;52.576;13.568;2023-06-10T02:20:05;14.70;1.00
9410;DHT22;4744;52.576;13.568;2023-06-10T02:22:33;14.70;1.00
9410;DHT22;4744;52.576;13.568;2023-06-10T02:25:00;14.70;1.00
9410;DHT22;4744;52.576;13.568;2023-06-10T02:27:27;14.70;1.00
9410;DHT22;4744;52.576;13.568;2023-06-10T02:29:55;14.60;1.00
9410;DHT22;4744;52.576;13.568;2023-06-10T02:32:22;14.60;1.00
9410;DHT22;4744;52.576;13.568;2023-06-10T02:34:50;14.60;1.00
9410;DHT22;4744;52.576;13.568;2023-06-10T02:37:18;14.60;1.00
9410;DHT22;4744;52.576;13.568;2023-06-10T02:39:44;14.50;1.00
9410;DHT22;4744;52.576;13.568;2023-06-10T02:42:11;14.50;1.00
9410;DHT22;4744;52.576;13.568;2023-06-10T02:44:38;14.50;1.00
9410;DHT22;4744;52.576;13.568;2023-06-10T02:47:07;14.50;1.00
9410;DHT22;4744;52.576;13.568;2023-06-10T02:49:34;14.50;1.00
9410;DHT22;4744;52.576;13.568;2023-06-10T02:52:01;14.40;1.00
9410;DHT22;4744;52.576;13.568;2023-06-10T02:54:28;14.40;1.00
9410;DHT22;4744;52.576;13.568;2023-06-10T02:56:55;14.40;1.00
9410;DHT22;4744;52.576;13.568;2023-06-10T02:59:22;14.40;1.00
9410;DHT22;4744;52.576;13.568;2023-06-10T03:01:49;14.40;1.00
9410;DHT22;4744;52.576;13.568;2023-06-10T03:04:17;14.40;1.00
9410;DHT22;4744;52.576;13.568;2023-06-10T03:06:44;14.40;1.00
9410;DHT22;4744;52.576;13.568;2023-06-10T03:09:12;14.40;1.00
9410;DHT22;4744;52.576;13.568;2023-06-10T03:11:40;14.40;1.00
9410;DHT22;4744;52.576;13.568;2023-06-10T03:14:07;14.40;1.00
9410;DHT22;4744;52.576;13.568;2023-06-10T03:16:34;14.40;1.00
9410;DHT22;4744;52.576;13.568;2023-06-10T03:19:01;14.50;1.00
9410;DHT22;4744;52.576;13.568;2023-06-10T03:21:29;14.50;1.00
9410;DHT22;4744;52.576;13.568;2023-06-10T03:23:56;14.40;1.00
9410;DHT22;4744;52.576;13.568;2023-06-10T03:26:23;14.50;1.00
9410;DHT22;4744;52.576;13.568;2023-06-10T03:28:50;14.40;1.00
9410;DHT22;4744;52.576;13.568;2023-06-10T03:31:17;14.40;1.00
9410;DHT22;4744;52.576;13.568;2023-06-10T03:33:43;14.40;1.00
9410;DHT22;4744;52.576;13.568;2023-06-10T03:36:11;14.40;1.00
9410;DHT22;4744;52.576;13.568;2023-06-10T03:38:39;14.40;1.00
9410;DHT22;4744;52.576;13.568;2023-06-10T03:41:06;14.40;1.00
9410;DHT22;4744;52.576;13.568;2023-06-10T03:43:33;14.40;1.00
9410;DHT22;4744;52.576;13.568;2023-06-10T03:46:00;14.40;1.00
9410;DHT22;4744;52.576;13.568;2023-06-10T03:48:27;14.40;1.00
9410;DHT22;4744;52.576;13.568;2023-06-10T03:50:54;14.40;1.00
9410;DHT22;4744;52.576;13.568;2023-06-10T03:53:21;14.40;1.00
9410;DHT22;4744;52.576;13.568;2023-06-10T03:55:49;14.50;1.00
9410;DHT22;4744;52.576;13.568;2023-06-10T03:58:16;14.50;1.00
9410;DHT22;4744;52.576;13.568;2023-06-10T04:00:43;14.50;1.00
9410;DHT22;4744;52.576;13.568;2023-06-10T04:03:11;14.50;1.00
9410;DHT22;4744;52.576;13.568;2023-06-10T04:05:40;14.60;1.00
9410;DHT22;4744;52.576;13.568;2023-06-10T04:08:07;14.60;1.00
9410;DHT22;4744;52.576;13.568;2023-06-10T04:10:34;14.60;1.00
9410;DHT22;4744;52.576;13.568;2023-06-10T04:13:02;14.70;1.00
9410;DHT22;4744;52.576;13.568;2023-06-10T04:15:30;14.70;1.00
9410;DHT22;4744;52.576;13.568;2023-06-10T04:17:59;14.70;1.00
9410;DHT22;4744;52.576;13.568;2023-06-10T04:20:26;14.70;1.00
9410;DHT22;4744;52.576;13.568;2023-06-10T04:22:53;14.80;1.00
9410;DHT22;4744;52.576;13.568;2023-06-10T04:25:20;14.90;1.00
9410;DHT22;4744;52.576;13.568;2023-06-10T04:27:47;14.90;1.00
9410;DHT22;4744;52.576;13.568;2023-06-10T04:30:16;14.90;1.00
9410;DHT22;4744;52.576;13.568;2023-06-10T04:32:43;14.90;1.00
9410;DHT22;4744;52.576;13.568;2023-06-10T04:35:11;15.00;1.00
9410;DHT22;4744;52.576;13.568;2023-06-10T04:37:39;15.00;1.00
9410;DHT22;4744;52.576;13.568;2023-06-10T04:40:07;15.10;1.00
9410;DHT22;4744;52.576;13.568;2023-06-10T04:42:34;15.20;1.00
9410;DHT22;4744;52.576;13.568;2023-06-10T04:45:01;15.30;1.00
9410;DHT22;4744;52.576;13.568;2023-06-10T04:47:30;15.40;1.00
9410;DHT22;4744;52.576;13.568;2023-06-10T04:49:58;15.50;1.00
9410;DHT22;4744;52.576;13.568;2023-06-10T04:52:25;15.70;1.00
9410;DHT22;4744;52.576;13.568;2023-06-10T04:54:53;15.90;1.00
9410;DHT22;4744;52.576;13.568;2023-06-10T04:57:20;16.00;1.00
9410;DHT22;4744;52.576;13.568;2023-06-10T04:59:47;16.10;1.00
9410;DHT22;4744;52.576;13.568;2023-06-10T05:02:14;16.30;1.00
9410;DHT22;4744;52.576;13.568;2023-06-10T05:04:42;16.50;1.00
9410;DHT22;4744;52.576;13.568;2023-06-10T05:07:10;16.50;1.00
9410;DHT22;4744;52.576;13.568;2023-06-10T05:09:36;16.70;1.00
9410;DHT22;4744;52.576;13.568;2023-06-10T05:12:04;16.70;1.00
9410;DHT22;4744;52.576;13.568;2023-06-10T05:14:32;16.70;1.00
9410;DHT22;4744;52.576;13.568;2023-06-10T05:16:59;16.70;1.00
9410;DHT22;4744;52.576;13.568;2023-06-10T05:19:26;16.70;1.00
9410;DHT22;4744;52.576;13.568;2023-06-10T05:21:54;16.70;1.00
9410;DHT22;4744;52.576;13.568;2023-06-10T05:24:21;16.70;1.00
9410;DHT22;4744;52.576;13.568;2023-06-10T05:26:48;16.70;1.00
9410;DHT22;4744;52.576;13.568;2023-06-10T05:29:15;16.60;1.00
9410;DHT22;4744;52.576;13.568;2023-06-10T05:31:42;16.60;1.00
9410;DHT22;4744;52.576;13.568;2023-06-10T05:34:12;16.60;1.00
9410;DHT22;4744;52.576;13.568;2023-06-10T05:36:39;16.70;1.00
9410;DHT22;4744;52.576;13.568;2023-06-10T05:39:07;16.60;1.00
9410;DHT22;4744;52.576;13.568;2023-06-10T05:41:34;16.60;1.00
9410;DHT22;4744;52.576;13.568;2023-06-10T05:44:01;16.60;1.00
9410;DHT22;4744;52.576;13.568;2023-06-10T05:46:28;16.60;1.00
9410;DHT22;4744;52.576;13.568;2023-06-10T05:48:55;16.60;1.00
9410;DHT22;4744;52.576;13.568;2023-06-10T05:51:22;16.60;1.00
9410;DHT22;4744;52.576;13.568;2023-06-10T05:53:49;16.60;1.00
9410;DHT22;4744;52.576;13.568;2023-06-10T05:56:17;16.60;1.00
9410;DHT22;4744;52.576;13.568;2023-06-10T05:58:44;16.70;1.00
9410;DHT22;4744;52.576;13.568;2023-06-10T06:01:11;16.80;1.00
9410;DHT22;4744;52.576;13.568;2023-06-10T06:03:38;16.80;1.00
9410;DHT22;4744;52.576;13.568;2023-06-10T06:06:05;16.90;1.00
9410;DHT22;4744;52.576;13.568;2023-06-10T06:08:32;16.90;1.00
9410;DHT22;4744;52.576;13.568;2023-06-10T06:10:59;17.00;1.00
9410;DHT22;4744;52.576;13.568;2023-06-10T06:13:27;17.10;1.00
9410;DHT22;4744;52.576;13.568;2023-06-10T06:15:54;17.10;1.00
9410;DHT22;4744;52.576;13.568;2023-06-10T06:18:21;17.20;1.00
9410;DHT22;4744;52.576;13.568;2023-06-10T06:20:49;17.30;1.00
9410;DHT22;4744;52.576;13.568;2023-06-10T06:23:16;17.40;1.00
9410;DHT22;4744;52.576;13.568;2023-06-10T06:25:43;17.50;1.00
9410;DHT22;4744;52.576;13.568;2023-06-10T06:28:10;17.60;1.00
9410;DHT22;4744;52.576;13.568;2023-06-10T06:30:38;17.80;1.00
9410;DHT22;4744;52.576;13.568;2023-06-10T06:33:05;18.10;1.00
9410;DHT22;4744;52.576;13.568;2023-06-10T06:35:32;18.30;1.00
9410;DHT22;4744;52.576;13.568;2023-06-10T06:38:00;18.40;1.00
9410;DHT22;4744;52.576;13.568;2023-06-10T06:40:27;18.50;1.00
9410;DHT22;4744;52.576;13.568;2023-06-10T06:42:54;18.70;1.00
9410;DHT22;4744;52.576;13.568;2023-06-10T06:45:21;18.70;1.00
9410;DHT22;4744;52.576;13.568;2023-06-10T06:47:49;18.80;1.00
9410;DHT22;4744;52.576;13.568;2023-06-10T06:50:16;18.90;1.00
9410;DHT22;4744;52.576;13.568;2023-06-10T06:52:44;18.90;1.00
9410;DHT22;4744;52.576;13.568;2023-06-10T06:55:10;19.00;1.00
9410;DHT22;4744;52.576;13.568;2023-06-10T06:57:37;19.10;1.00
9410;DHT22;4744;52.576;13.568;2023-06-10T07:00:05;19.10;1.00
9410;DHT22;4744;52.576;13.568;2023-06-10T07:02:34;19.20;1.00
9410;DHT22;4744;52.576;13.568;2023-06-10T07:05:03;19.30;1.00
9410;DHT22;4744;52.576;13.568;2023-06-10T07:07:30;19.40;1.00
9410;DHT22;4744;52.576;13.568;2023-06-10T07:09:57;19.50;1.00
9410;DHT22;4744;52.576;13.568;2023-06-10T07:12:23;19.50;1.00
9410;DHT22;4744;52.576;13.568;2023-06-10T07:14:50;19.50;1.00
9410;DHT22;4744;52.576;13.568;2023-06-10T07:17:17;19.50;1.00
9410;DHT22;4744;52.576;13.568;2023-06-10T07:19:45;19.60;1.00
9410;DHT22;4744;52.576;13.568;2023-06-10T07:22:14;19.70;1.00
9410;DHT22;4744;52.576;13.568;2023-06-10T07:24:41;19.80;1.00
9410;DHT22;4744;52.576;13.568;2023-06-10T07:27:08;20.00;1.00
9410;DHT22;4744;52.576;13.568;2023-06-10T07:29:35;20.20;1.00
9410;DHT22;4744;52.576;13.568;2023-06-10T07:32:03;20.50;1.00
9410;DHT22;4744;52.576;13.568;2023-06-10T07:34:30;20.70;1.00
9410;DHT22;4744;52.576;13.568;2023-06-10T07:36:57;20.90;1.00
9410;DHT22;4744;52.576;13.568;2023-06-10T07:39:25;21.00;1.00
9410;DHT22;4744;52.576;13.568;2023-06-10T07:41:52;21.20;1.00
9410;DHT22;4744;52.576;13.568;2023-06-10T07:44:22;21.30;1.00
9410;DHT22;4744;52.576;13.568;2023-06-10T07:46:49;21.40;1.00
9410;DHT22;4744;52.576;13.568;2023-06-10T07:49:16;21.50;1.00
9410;DHT22;4744;52.576;13.568;2023-06-10T07:51:43;21.50;1.00
9410;DHT22;4744;52.576;13.568;2023-06-10T07:54:10;21.60;1.00
9410;DHT22;4744;52.576;13.568;2023-06-10T07:56:40;21.60;1.00
9410;DHT22;4744;52.576;13.568;2023-06-10T07:59:07;21.70;1.00
9410;DHT22;4744;52.576;13.568;2023-06-10T08:01:34;21.70;1.00
9410;DHT22;4744;52.576;13.568;2023-06-10T08:04:01;21.80;1.00
9410;DHT22;4744;52.576;13.568;2023-06-10T08:06:28;21.80;1.00
9410;DHT22;4744;52.576;13.568;2023-06-10T08:08:55;21.80;1.00
9410;DHT22;4744;52.576;13.568;2023-06-10T08:11:22;21.90;1.00
9410;DHT22;4744;52.576;13.568;2023-06-10T08:13:50;21.80;1.00
9410;DHT22;4744;52.576;13.568;2023-06-10T08:16:17;21.90;1.00
9410;DHT22;4744;52.576;13.568;2023-06-10T08:18:44;22.00;1.00
9410;DHT22;4744;52.576;13.568;2023-06-10T08:21:11;22.00;1.00
9410;DHT22;4744;52.576;13.568;2023-06-10T08:23:38;22.00;1.00
9410;DHT22;4744;52.576;13.568;2023-06-10T08:26:05;22.00;1.00
9410;DHT22;4744;52.576;13.568;2023-06-10T08:28:32;22.00;1.00
9410;DHT22;4744;52.576;13.568;2023-06-10T08:31:00;22.00;1.00
9410;DHT22;4744;52.576;13.568;2023-06-10T08:33:27;22.00;1.00
9410;DHT22;4744;52.576;13.568;2023-06-10T08:35:54;22.00;1.00
9410;DHT22;4744;52.576;13.568;2023-06-10T08:38:21;22.00;1.00
9410;DHT22;4744;52.576;13.568;2023-06-10T08:40:48;22.00;1.00
9410;DHT22;4744;52.576;13.568;2023-06-10T08:43:22;22.10;1.00
9410;DHT22;4744;52.576;13.568;2023-06-10T08:45:49;22.10;1.00
9410;DHT22;4744;52.576;13.568;2023-06-10T08:48:19;22.10;1.00
9410;DHT22;4744;52.576;13.568;2023-06-10T08:50:48;22.00;1.00
9410;DHT22;4744;52.576;13.568;2023-06-10T08:53:18;22.00;1.00
9410;DHT22;4744;52.576;13.568;2023-06-10T08:55:49;21.90;1.00
9410;DHT22;4744;52.576;13.568;2023-06-10T08:58:18;21.70;1.00
9410;DHT22;4744;52.576;13.568;2023-06-10T09:00:45;21.60;1.00
9410;DHT22;4744;52.576;13.568;2023-06-10T09:03:12;21.50;1.00
9410;DHT22;4744;52.576;13.568;2023-06-10T09:05:41;21.40;1.00
9410;DHT22;4744;52.576;13.568;2023-06-10T09:08:08;21.40;1.00
9410;DHT22;4744;52.576;13.568;2023-06-10T09:10:35;21.30;1.00
9410;DHT22;4744;52.576;13.568;2023-06-10T09:13:02;21.30;1.00
9410;DHT22;4744;52.576;13.568;2023-06-10T09:15:30;21.20;1.00
9410;DHT22;4744;52.576;13.568;2023-06-10T09:17:57;21.20;1.00
9410;DHT22;4744;52.576;13.568;2023-06-10T09:20:25;21.10;1.00
9410;DHT22;4744;52.576;13.568;2023-06-10T09:22:53;21.10;1.00
9410;DHT22;4744;52.576;13.568;2023-06-10T09:25:34;21.10;1.00
9410;DHT22;4744;52.576;13.568;2023-06-10T09:28:02;21.10;1.00
9410;DHT22;4744;52.576;13.568;2023-06-10T09:30:30;21.10;1.00
9410;DHT22;4744;52.576;13.568;2023-06-10T09:32:59;21.10;1.00
9410;DHT22;4744;52.576;13.568;2023-06-10T09:35:27;21.20;1.00
9410;DHT22;4744;52.576;13.568;2023-06-10T09:37:57;21.30;1.00
9410;DHT22;4744;52.576;13.568;2023-06-10T09:40:25;21.40;1.00
9410;DHT22;4744;52.576;13.568;2023-06-10T09:42:53;21.40;1.00
9410;DHT22;4744;52.576;13.568;2023-06-10T09:45:22;21.50;1.00
9410;DHT22;4744;52.576;13.568;2023-06-10T09:47:51;21.60;1.00
9410;DHT22;4744;52.576;13.568;2023-06-10T09:50:18;21.80;1.00
9410;DHT22;4744;52.576;13.568;2023-06-10T09:52:46;21.80;1.00
9410;DHT22;4744;52.576;13.568;2023-06-10T09:55:15;21.90;1.00
9410;DHT22;4744;52.576;13.568;2023-06-10T09:57:42;22.00;1.00
9410;DHT22;4744;52.576;13.568;2023-06-10T10:00:14;22.00;1.00
9410;DHT22;4744;52.576;13.568;2023-06-10T10:02:45;22.00;1.00
9410;DHT22;4744;52.576;13.568;2023-06-10T10:05:13;22.00;1.00
9410;DHT22;4744;52.576;13.568;2023-06-10T10:07:41;22.00;1.00
9410;DHT22;4744;52.576;13.568;2023-06-10T10:10:08;22.00;1.00
9410;DHT22;4744;52.576;13.568;2023-06-10T10:12:37;21.90;1.00
9410;DHT22;4744;52.576;13.568;2023-06-10T10:15:06;21.80;1.00
9410;DHT22;4744;52.576;13.568;2023-06-10T10:17:34;21.70;1.00
9410;DHT22;4744;52.576;13.568;2023-06-10T10:20:05;21.60;1.00
9410;DHT22;4744;52.576;13.568;2023-06-10T10:22:37;21.50;1.00
9410;DHT22;4744;52.576;13.568;2023-06-10T10:25:09;21.30;1.00
9410;DHT22;4744;52.576;13.568;2023-06-10T10:27:43;21.20;1.00
9410;DHT22;4744;52.576;13.568;2023-06-10T10:30:11;21.10;1.00
9410;DHT22;4744;52.576;13.568;2023-06-10T10:32:43;21.00;1.00
9410;DHT22;4744;52.576;13.568;2023-06-10T10:35:13;20.80;1.00
9410;DHT22;4744;52.576;13.568;2023-06-10T10:37:43;20.70;1.00
9410;DHT22;4744;52.576;13.568;2023-06-10T10:40:11;20.70;1.00
9410;DHT22;4744;52.576;13.568;2023-06-10T10:42:40;20.60;1.00
9410;DHT22;4744;52.576;13.568;2023-06-10T10:45:09;20.60;1.00
9410;DHT22;4744;52.576;13.568;2023-06-10T10:47:36;20.70;1.00
9410;DHT22;4744;52.576;13.568;2023-06-10T10:50:13;20.70;1.00
9410;DHT22;4744;52.576;13.568;2023-06-10T10:52:51;20.70;1.00
9410;DHT22;4744;52.576;13.568;2023-06-10T10:55:18;20.80;1.00
9410;DHT22;4744;52.576;13.568;2023-06-10T10:57:53;20.90;1.00
9410;DHT22;4744;52.576;13.568;2023-06-10T11:00:28;21.00;1.00
9410;DHT22;4744;52.576;13.568;2023-06-10T11:02:58;21.10;1.00
9410;DHT22;4744;52.576;13.568;2023-06-10T11:05:36;21.20;1.00
9410;DHT22;4744;52.576;13.568;2023-06-10T11:08:04;21.30;1.00
9410;DHT22;4744;52.576;13.568;2023-06-10T11:10:32;21.50;1.00
9410;DHT22;4744;52.576;13.568;2023-06-10T11:13:05;22.00;1.00
9410;DHT22;4744;52.576;13.568;2023-06-10T11:15:33;22.40;1.00
9410;DHT22;4744;52.576;13.568;2023-06-10T11:18:12;22.90;1.00
9410;DHT22;4744;52.576;13.568;2023-06-10T11:20:56;23.30;1.00
9410;DHT22;4744;52.576;13.568;2023-06-10T11:23:39;23.60;1.00
9410;DHT22;4744;52.576;13.568;2023-06-10T11:26:17;23.90;1.00
9410;DHT22;4744;52.576;13.568;2023-06-10T11:29:09;24.10;1.00
9410;DHT22;4744;52.576;13.568;2023-06-10T11:31:44;24.20;1.00
9410;DHT22;4744;52.576;13.568;2023-06-10T11:34:12;24.50;1.00
9410;DHT22;4744;52.576;13.568;2023-06-10T11:36:41;24.80;1.00
9410;DHT22;4744;52.576;13.568;2023-06-10T11:39:11;25.00;1.00
9410;DHT22;4744;52.576;13.568;2023-06-10T11:41:39;25.20;1.00
9410;DHT22;4744;52.576;13.568;2023-06-10T11:44:10;25.40;1.00
9410;DHT22;4744;52.576;13.568;2023-06-10T11:46:37;25.70;1.00
9410;DHT22;4744;52.576;13.568;2023-06-10T11:49:05;25.90;1.00
9410;DHT22;4744;52.576;13.568;2023-06-10T11:51:34;26.00;1.00
9410;DHT22;4744;52.576;13.568;2023-06-10T11:54:02;26.20;1.00
9410;DHT22;4744;52.576;13.568;2023-06-10T11:56:30;26.30;1.00
9410;DHT22;4744;52.576;13.568;2023-06-10T11:58:58;26.40;1.00
9410;DHT22;4744;52.576;13.568;2023-06-10T12:01:32;26.60;1.00
9410;DHT22;4744;52.576;13.568;2023-06-10T12:04:01;26.70;1.00
9410;DHT22;4744;52.576;13.568;2023-06-10T12:06:37;26.90;1.00
9410;DHT22;4744;52.576;13.568;2023-06-10T12:09:05;27.00;1.00
9410;DHT22;4744;52.576;13.568;2023-06-10T12:11:32;27.20;1.00
9410;DHT22;4744;52.576;13.568;2023-06-10T12:13:59;27.40;1.00
9410;DHT22;4744;52.576;13.568;2023-06-10T12:16:26;27.50;1.00
9410;DHT22;4744;52.576;13.568;2023-06-10T12:19:01;27.50;1.00
9410;DHT22;4744;52.576;13.568;2023-06-10T12:21:29;27.50;1.00
9410;DHT22;4744;52.576;13.568;2023-06-10T12:24:04;27.50;1.00
9410;DHT22;4744;52.576;13.568;2023-06-10T12:26:36;27.40;1.00
9410;DHT22;4744;52.576;13.568;2023-06-10T12:29:15;27.30;1.00
9410;DHT22;4744;52.576;13.568;2023-06-10T12:31:59;27.40;1.00
9410;DHT22;4744;52.576;13.568;2023-06-10T12:34:38;27.40;1.00
9410;DHT22;4744;52.576;13.568;2023-06-10T12:37:10;27.50;1.00
9410;DHT22;4744;52.576;13.568;2023-06-10T12:39:39;27.50;1.00
9410;DHT22;4744;52.576;13.568;2023-06-10T12:42:08;27.50;1.00
9410;DHT22;4744;52.576;13.568;2023-06-10T12:44:38;27.60;1.00
9410;DHT22;4744;52.576;13.568;2023-06-10T12:47:10;27.60;1.00
9410;DHT22;4744;52.576;13.568;2023-06-10T12:49:39;27.60;1.00
9410;DHT22;4744;52.576;13.568;2023-06-10T12:52:09;27.60;1.00
9410;DHT22;4744;52.576;13.568;2023-06-10T12:54:36;27.60;1.00
9410;DHT22;4744;52.576;13.568;2023-06-10T12:57:04;27.60;1.00
9410;DHT22;4744;52.576;13.568;2023-06-10T12:59:30;27.70;1.00
9410;DHT22;4744;52.576;13.568;2023-06-10T13:01:58;27.70;1.00
9410;DHT22;4744;52.576;13.568;2023-06-10T13:04:25;27.70;1.00
9410;DHT22;4744;52.576;13.568;2023-06-10T13:06:53;27.80;1.00
9410;DHT22;4744;52.576;13.568;2023-06-10T13:09:21;27.90;1.00
9410;DHT22;4744;52.576;13.568;2023-06-10T13:11:48;27.90;1.00
9410;DHT22;4744;52.576;13.568;2023-06-10T13:14:15;28.10;1.00
9410;DHT22;4744;52.576;13.568;2023-06-10T13:16:42;28.10;1.00
9410;DHT22;4744;52.576;13.568;2023-06-10T13:19:10;28.10;1.00
9410;DHT22;4744;52.576;13.568;2023-06-10T13:21:37;28.10;1.00
9410;DHT22;4744;52.576;13.568;2023-06-10T13:24:06;28.20;1.00
9410;DHT22;4744;52.576;13.568;2023-06-10T13:26:32;28.10;1.00
9410;DHT22;4744;52.576;13.568;2023-06-10T13:28:59;28.10;1.00
9410;DHT22;4744;52.576;13.568;2023-06-10T13:31:26;28.20;1.00
9410;DHT22;4744;52.576;13.568;2023-06-10T13:33:54;28.20;1.00
9410;DHT22;4744;52.576;13.568;2023-06-10T13:36:21;28.20;1.00
9410;DHT22;4744;52.576;13.568;2023-06-10T13:38:48;28.20;1.00
9410;DHT22;4744;52.576;13.568;2023-06-10T13:41:16;28.20;1.00
9410;DHT22;4744;52.576;13.568;2023-06-10T13:43:43;28.10;1.00
9410;DHT22;4744;52.576;13.568;2023-06-10T13:46:10;28.10;1.00
9410;DHT22;4744;52.576;13.568;2023-06-10T13:48:37;27.90;1.00
9410;DHT22;4744;52.576;13.568;2023-06-10T13:51:04;27.70;1.00
9410;DHT22;4744;52.576;13.568;2023-06-10T13:53:31;27.50;1.00
9410;DHT22;4744;52.576;13.568;2023-06-10T13:55:58;27.20;1.00
9410;DHT22;4744;52.576;13.568;2023-06-10T13:58:26;27.10;1.00
9410;DHT22;4744;52.576;13.568;2023-06-10T14:00:53;26.90;1.00
9410;DHT22;4744;52.576;13.568;2023-06-10T14:03:20;26.90;1.00
9410;DHT22;4744;52.576;13.568;2023-06-10T14:05:47;27.00;1.00
9410;DHT22;4744;52.576;13.568;2023-06-10T14:08:14;27.10;1.00
9410;DHT22;4744;52.576;13.568;2023-06-10T14:10:42;27.20;1.00
9410;DHT22;4744;52.576;13.568;2023-06-10T14:13:09;27.30;1.00
9410;DHT22;4744;52.576;13.568;2023-06-10T14:15:37;27.30;1.00
9410;DHT22;4744;52.576;13.568;2023-06-10T14:18:04;27.40;1.00
9410;DHT22;4744;52.576;13.568;2023-06-10T14:20:31;27.50;1.00
9410;DHT22;4744;52.576;13.568;2023-06-10T14:22:58;27.50;1.00
9410;DHT22;4744;52.576;13.568;2023-06-10T14:25:25;27.50;1.00
9410;DHT22;4744;52.576;13.568;2023-06-10T14:27:52;27.60;1.00
9410;DHT22;4744;52.576;13.568;2023-06-10T14:30:19;27.60;1.00
9410;DHT22;4744;52.576;13.568;2023-06-10T14:32:47;27.60;1.00
9410;DHT22;4744;52.576;13.568;2023-06-10T14:35:14;27.60;1.00
9410;DHT22;4744;52.576;13.568;2023-06-10T14:37:41;27.70;1.00
9410;DHT22;4744;52.576;13.568;2023-06-10T14:40:09;27.60;1.00
9410;DHT22;4744;52.576;13.568;2023-06-10T14:42:36;27.70;1.00
9410;DHT22;4744;52.576;13.568;2023-06-10T14:45:04;27.70;1.00
9410;DHT22;4744;52.576;13.568;2023-06-10T14:47:31;27.80;1.00
9410;DHT22;4744;52.576;13.568;2023-06-10T14:49:59;27.70;1.00
9410;DHT22;4744;52.576;13.568;2023-06-10T14:52:26;27.80;1.00
9410;DHT22;4744;52.576;13.568;2023-06-10T14:54:53;27.80;1.00
9410;DHT22;4744;52.576;13.568;2023-06-10T14:57:19;27.80;1.00
9410;DHT22;4744;52.576;13.568;2023-06-10T14:59:46;27.80;1.00
9410;DHT22;4744;52.576;13.568;2023-06-10T15:02:13;27.80;1.00
9410;DHT22;4744;52.576;13.568;2023-06-10T15:04:40;27.70;1.00
9410;DHT22;4744;52.576;13.568;2023-06-10T15:07:08;27.70;1.00
9410;DHT22;4744;52.576;13.568;2023-06-10T15:09:35;27.60;1.00
9410;DHT22;4744;52.576;13.568;2023-06-10T15:12:02;27.60;1.00
9410;DHT22;4744;52.576;13.568;2023-06-10T15:14:31;27.50;1.00
9410;DHT22;4744;52.576;13.568;2023-06-10T15:16:58;27.50;1.00
9410;DHT22;4744;52.576;13.568;2023-06-10T15:19:26;27.40;1.00
9410;DHT22;4744;52.576;13.568;2023-06-10T15:21:52;27.30;1.00
9410;DHT22;4744;52.576;13.568;2023-06-10T15:24:21;27.20;1.00
9410;DHT22;4744;52.576;13.568;2023-06-10T15:26:47;27.10;1.00
9410;DHT22;4744;52.576;13.568;2023-06-10T15:29:15;27.10;1.00
9410;DHT22;4744;52.576;13.568;2023-06-10T15:31:41;27.00;1.00
9410;DHT22;4744;52.576;13.568;2023-06-10T15:34:08;27.10;1.00
9410;DHT22;4744;52.576;13.568;2023-06-10T15:36:35;27.00;1.00
9410;DHT22;4744;52.576;13.568;2023-06-10T15:39:04;27.00;1.00
9410;DHT22;4744;52.576;13.568;2023-06-10T15:41:33;27.00;1.00
9410;DHT22;4744;52.576;13.568;2023-06-10T15:44:01;27.00;1.00
9410;DHT22;4744;52.576;13.568;2023-06-10T15:46:28;26.90;1.00
9410;DHT22;4744;52.576;13.568;2023-06-10T15:48:55;26.90;1.00
9410;DHT22;4744;52.576;13.568;2023-06-10T15:51:23;26.90;1.00
9410;DHT22;4744;52.576;13.568;2023-06-10T15:53:49;26.80;1.00
9410;DHT22;4744;52.576;13.568;2023-06-10T15:56:16;26.90;1.00
9410;DHT22;4744;52.576;13.568;2023-06-10T15:58:45;26.90;1.00
9410;DHT22;4744;52.576;13.568;2023-06-10T16:01:11;27.00;1.00
9410;DHT22;4744;52.576;13.568;2023-06-10T16:03:39;27.10;1.00
9410;DHT22;4744;52.576;13.568;2023-06-10T16:06:07;27.20;1.00
9410;DHT22;4744;52.576;13.568;2023-06-10T16:08:34;27.30;1.00